Time;durP1;ratioP1;P1;durP2;ratioP2;P2;SDS_P1;SDS_P2;PMS_P1;PMS_P2;Temp;Humidity;BMP_temperature;BMP_pressure;BME280_temperature;BME280_humidity;BME280_pressure;Samples;Min_cycle;Max_cycle;Signal;HPM_P1;HPM_P2
2022/11/15 00:00:19;;;;;;;27.83;19.60;;;8.20;99.90;;;;;;4994863;28;20405;-78
2022/11/15 00:02:45;;;;;;;26.88;18.85;;;8.20;99.90;;;;;;5009379;28;20132;-78
2022/11/15 00:05:10;;;;;;;30.13;19.23;;;8.20;99.90;;;;;;4999129;28;20948;-76
2022/11/15 00:07:38;;;;;;;28.25;20.45;;;8.20;99.90;;;;;;5020036;28;20045;-79
2022/11/15 00:10:04;;;;;;;30.15;20.65;;;8.20;99.90;;;;;;5018465;28;20037;-78
2022/11/15 00:12:29;;;;;;;32.15;21.58;;;8.20;99.90;;;;;;5015114;28;20048;-78
2022/11/15 00:14:55;;;;;;;26.35;19.23;;;8.10;99.90;;;;;;5016263;28;20045;-78
2022/11/15 00:17:21;;;;;;;28.58;19.60;;;8.10;99.90;;;;;;5003247;28;20037;-77
2022/11/15 00:19:46;;;;;;;29.88;20.33;;;8.10;99.90;;;;;;4985469;28;20409;-76
2022/11/15 00:22:12;;;;;;;29.48;20.17;;;8.20;99.90;;;;;;4994983;28;20043;-77
2022/11/15 00:24:38;;;;;;;32.90;21.35;;;8.10;99.90;;;;;;5012271;28;20048;-76
2022/11/15 00:27:03;;;;;;;31.58;20.45;;;8.20;99.90;;;;;;4989765;28;21270;-77
2022/11/15 00:29:29;;;;;;;32.55;21.48;;;8.10;99.90;;;;;;5001692;28;20048;-78
2022/11/15 00:31:54;;;;;;;30.30;20.67;;;8.10;99.90;;;;;;5020692;28;20474;-76
2022/11/15 00:34:20;;;;;;;32.38;21.40;;;8.10;99.90;;;;;;5000007;28;20412;-78
2022/11/15 00:36:47;;;;;;;29.52;20.38;;;8.50;99.90;;;;;;5002912;28;20043;-78
2022/11/15 00:39:13;;;;;;;28.48;19.33;;;8.20;99.90;;;;;;5003052;28;20057;-77
2022/11/15 00:41:38;;;;;;;33.47;21.63;;;8.20;99.90;;;;;;5016507;28;20044;-79
2022/11/15 00:44:04;;;;;;;28.20;19.17;;;8.20;99.90;;;;;;5018910;28;20125;-76
2022/11/15 00:46:30;;;;;;;34.83;21.85;;;8.10;99.90;;;;;;5000813;28;20037;-77
2022/11/15 00:48:55;;;;;;;30.92;20.52;;;8.10;99.90;;;;;;5001169;28;20091;-77
2022/11/15 00:51:21;;;;;;;29.52;20.48;;;8.20;99.90;;;;;;5014228;28;20103;-78
2022/11/15 00:53:47;;;;;;;30.65;20.55;;;8.60;99.90;;;;;;5010177;28;20052;-78
2022/11/15 00:56:12;;;;;;;29.20;19.40;;;8.20;99.90;;;;;;5003242;28;20045;-78
2022/11/15 00:58:38;;;;;;;30.63;19.55;;;8.20;99.90;;;;;;4966631;28;20465;-77
2022/11/15 01:01:10;;;;;;;30.58;20.75;;;8.20;99.90;;;;;;4971122;28;20083;-78
2022/11/15 01:03:36;;;;;;;30.90;21.30;;;8.10;99.90;;;;;;5019785;28;20049;-76
2022/11/15 01:06:02;;;;;;;26.42;19.05;;;8.10;99.90;;;;;;5000373;28;20049;-79
2022/11/15 01:08:28;;;;;;;29.08;21.27;;;8.10;99.90;;;;;;5016716;28;20040;-78
2022/11/15 01:10:53;;;;;;;29.35;20.75;;;8.10;99.90;;;;;;5016618;28;20049;-78
2022/11/15 01:13:19;;;;;;;28.67;19.95;;;8.10;99.90;;;;;;5001060;28;20770;-78
2022/11/15 01:15:45;;;;;;;28.10;20.45;;;8.10;99.90;;;;;;4999206;28;20045;-77
2022/11/15 01:18:10;;;;;;;29.90;20.65;;;8.30;99.90;;;;;;5011404;28;20435;-79
2022/11/15 01:20:43;;;;;;;29.60;20.58;;;8.10;99.90;;;;;;5003187;28;20103;-78
2022/11/15 01:23:09;;;;;;;31.02;21.30;;;8.10;99.90;;;;;;5014683;28;20037;-76
2022/11/15 01:25:34;;;;;;;28.83;21.67;;;8.00;99.90;;;;;;5010776;28;20068;-78
2022/11/15 01:28:00;;;;;;;28.33;22.02;;;8.00;99.90;;;;;;5001115;28;20128;-77
2022/11/15 01:30:26;;;;;;;31.98;22.52;;;8.00;99.90;;;;;;5000031;28;20059;-76
2022/11/15 01:32:51;;;;;;;31.73;22.27;;;8.00;99.90;;;;;;4988495;28;20060;-78
2022/11/15 01:35:17;;;;;;;26.92;20.67;;;8.00;99.90;;;;;;5000085;28;20056;-78
2022/11/15 01:37:43;;;;;;;34.38;23.10;;;8.00;99.90;;;;;;5002553;28;20041;-77
2022/11/15 01:40:09;;;;;;;32.90;22.90;;;7.90;99.90;;;;;;4999892;28;20103;-78
2022/11/15 01:42:34;;;;;;;35.35;23.63;;;7.80;99.90;;;;;;5015294;28;20124;-77
2022/11/15 01:45:00;;;;;;;32.08;23.30;;;7.80;99.90;;;;;;4983243;28;20051;-77
2022/11/15 01:47:28;;;;;;;31.25;22.45;;;7.80;99.90;;;;;;5000284;28;20637;-77
2022/11/15 01:49:57;;;;;;;32.08;23.05;;;7.80;99.90;;;;;;4999000;28;20037;-75
2022/11/15 01:52:25;;;;;;;33.72;23.50;;;7.80;99.90;;;;;;5011304;28;20039;-77
2022/11/15 01:55:07;;;;;;;34.58;23.02;;;8.40;99.90;;;;;;5023486;28;20037;-77
2022/11/15 01:57:34;;;;;;;32.92;23.33;;;7.70;99.90;;;;;;5030397;28;20037;-79
2022/11/15 02:00:00;;;;;;;38.97;24.05;;;7.70;99.90;;;;;;5010362;28;20409;-78
2022/11/15 02:02:26;;;;;;;35.25;23.52;;;8.40;99.90;;;;;;5008914;28;20025;-77
2022/11/15 02:04:52;;;;;;;34.38;23.73;;;7.60;99.90;;;;;;5025912;28;20035;-78
2022/11/15 02:07:20;;;;;;;35.17;24.83;;;8.30;99.90;;;;;;5029303;28;20653;-78
2022/11/15 02:09:47;;;;;;;34.97;24.08;;;7.60;99.90;;;;;;5027296;28;20405;-78
2022/11/15 02:12:15;;;;;;;39.58;24.48;;;7.60;99.90;;;;;;5024038;28;20124;-79
2022/11/15 02:14:44;;;;;;;37.80;24.00;;;7.60;99.90;;;;;;5033644;28;20124;-78
2022/11/15 02:17:41;;;;;;;37.30;22.38;;;7.60;99.90;;;;;;5014494;28;20045;-79
2022/11/15 02:20:37;;;;;;;34.92;22.90;;;7.50;99.90;;;;;;5017795;28;20044;-77
2022/11/15 02:23:09;;;;;;;35.70;22.27;;;7.50;99.90;;;;;;5034746;28;20043;-78
2022/11/15 02:25:59;;;;;;;32.58;21.70;;;7.50;99.90;;;;;;5014228;28;20479;-76
2022/11/15 02:28:48;;;;;;;33.13;21.65;;;7.50;99.90;;;;;;5031474;28;20053;-77
2022/11/15 02:31:26;;;;;;;32.28;21.35;;;7.50;99.90;;;;;;5029413;28;20041;-79
2022/11/15 02:34:16;;;;;;;34.83;21.83;;;7.40;99.90;;;;;;5033941;28;20043;-77
2022/11/15 02:36:59;;;;;;;31.67;19.58;;;7.50;99.90;;;;;;5013361;28;20041;-78
2022/11/15 02:39:49;;;;;;;36.25;21.27;;;7.40;99.90;;;;;;5031417;28;20052;-78
2022/11/15 02:45:13;;;;;;;35.03;21.38;;;7.40;99.90;;;;;;5028563;28;20440;-77
2022/11/15 02:47:45;;;;;;;30.88;20.75;;;7.40;99.90;;;;;;5014815;28;20056;-78
2022/11/15 02:50:15;;;;;;;32.67;21.05;;;7.40;99.90;;;;;;5014312;28;20072;-78
2022/11/15 02:52:45;;;;;;;36.13;20.98;;;7.50;99.90;;;;;;5010378;28;20917;-78
2022/11/15 02:55:32;;;;;;;36.88;21.70;;;7.50;99.90;;;;;;5015704;28;20032;-78
2022/11/15 02:58:19;;;;;;;29.88;20.05;;;7.50;99.90;;;;;;5026106;28;20512;-78
2022/11/15 03:01:04;;;;;;;34.35;22.27;;;7.50;99.90;;;;;;5030570;28;20041;-78
2022/11/15 03:03:45;;;;;;;36.90;22.38;;;7.50;99.90;;;;;;5027950;28;20044;-78
2022/11/15 03:06:21;;;;;;;36.33;22.10;;;7.50;99.90;;;;;;5029775;28;20053;-79
2022/11/15 03:09:09;;;;;;;41.60;22.63;;;7.60;99.90;;;;;;5031215;28;20036;-78
2022/11/15 03:11:42;;;;;;;41.25;24.13;;;7.50;99.90;;;;;;5027977;28;20110;-77
2022/11/15 03:14:40;;;;;;;41.15;24.13;;;7.50;99.90;;;;;;5030064;28;20041;-78
2022/11/15 03:17:18;;;;;;;40.75;23.88;;;7.50;99.90;;;;;;4980635;28;20045;-78
2022/11/15 03:19:50;;;;;;;40.90;22.90;;;7.50;99.90;;;;;;5011393;28;20056;-77
2022/11/15 03:22:20;;;;;;;43.65;24.33;;;7.50;99.90;;;;;;5011448;28;20034;-78
2022/11/15 03:24:50;;;;;;;41.58;22.92;;;7.50;99.90;;;;;;5031916;28;20100;-78
2022/11/15 03:27:21;;;;;;;44.45;23.73;;;7.60;99.90;;;;;;5016003;28;20060;-77
2022/11/15 03:29:53;;;;;;;39.60;22.95;;;7.50;99.90;;;;;;5025533;28;20476;-77
2022/11/15 03:32:29;;;;;;;46.38;24.95;;;7.50;99.90;;;;;;5030955;28;20040;-77
2022/11/15 03:35:05;;;;;;;41.03;22.88;;;7.60;99.90;;;;;;5028692;28;20505;-76
2022/11/15 03:37:38;;;;;;;46.17;24.80;;;7.60;99.90;;;;;;5027351;28;20033;-78
2022/11/15 03:40:05;;;;;;;47.28;25.48;;;7.60;99.90;;;;;;5018608;28;20501;-78
2022/11/15 03:42:53;;;;;;;56.28;26.08;;;7.60;99.90;;;;;;4990240;28;20037;-78
2022/11/15 03:45:34;;;;;;;53.90;25.85;;;7.50;99.90;;;;;;5031005;28;20053;-78
2022/11/15 03:48:16;;;;;;;48.10;25.23;;;7.60;99.90;;;;;;5021800;28;20041;-76
2022/11/15 03:50:43;;;;;;;51.30;25.92;;;7.60;99.90;;;;;;5041603;28;20105;-78
2022/11/15 03:53:09;;;;;;;49.63;26.23;;;7.60;99.90;;;;;;5026212;28;20059;-78
2022/11/15 03:55:35;;;;;;;53.50;24.70;;;7.60;99.90;;;;;;5029850;28;20115;-78
2022/11/15 03:58:01;;;;;;;54.33;26.02;;;7.60;99.90;;;;;;5017989;28;20126;-78
2022/11/15 04:00:28;;;;;;;51.25;26.02;;;8.10;99.90;;;;;;5038510;28;20491;-78
2022/11/15 04:02:53;;;;;;;52.35;26.40;;;7.70;99.90;;;;;;5014835;28;20040;-77
2022/11/15 04:05:19;;;;;;;48.53;24.98;;;7.80;99.90;;;;;;5030509;28;20052;-78
2022/11/15 04:07:45;;;;;;;52.13;25.98;;;8.10;99.90;;;;;;5028188;28;20045;-78
2022/11/15 04:10:11;;;;;;;52.50;25.17;;;7.80;99.90;;;;;;5027856;28;20139;-78
2022/11/15 04:12:42;;;;;;;49.53;26.83;;;7.80;99.90;;;;;;5028546;28;20029;-78
2022/11/15 04:15:13;;;;;;;53.75;25.98;;;7.80;99.90;;;;;;5026188;28;20519;-78
2022/11/15 04:17:41;;;;;;;56.67;26.73;;;7.80;99.90;;;;;;5029867;28;20044;-78
2022/11/15 04:26:00;;;;;;;54.90;25.98;;;7.90;99.90;;;;;;4984709;28;20045;-78
2022/11/15 04:28:25;;;;;;;57.30;25.38;;;8.00;99.90;;;;;;5033696;28;20091;-78
2022/11/15 04:30:51;;;;;;;52.65;25.88;;;8.00;99.90;;;;;;5018139;28;20037;-78
2022/11/15 04:33:17;;;;;;;57.42;25.98;;;8.00;99.90;;;;;;5014482;28;20039;-79
2022/11/15 04:35:43;;;;;;;58.13;26.38;;;8.00;99.90;;;;;;5014577;28;20047;-78
2022/11/15 04:38:10;;;;;;;56.80;27.25;;;8.00;99.90;;;;;;5018007;28;20041;-78
2022/11/15 04:40:37;;;;;;;55.05;26.98;;;8.00;99.90;;;;;;5018043;28;20041;-79
2022/11/15 04:43:04;;;;;;;52.30;27.02;;;8.10;99.90;;;;;;5000924;28;20412;-78
2022/11/15 04:45:30;;;;;;;56.53;26.02;;;8.10;99.90;;;;;;5033108;28;20041;-78
2022/11/15 04:47:55;;;;;;;58.90;27.45;;;8.10;99.90;;;;;;5033945;28;20059;-79
2022/11/15 04:50:21;;;;;;;56.53;27.80;;;8.10;99.90;;;;;;5027333;28;20497;-78
2022/11/15 04:52:52;;;;;;;55.13;24.95;;;8.20;99.90;;;;;;5000789;28;20643;-78
2022/11/15 04:55:18;;;;;;;59.60;29.13;;;8.20;99.90;;;;;;5015423;28;20548;-78
2022/11/15 04:57:43;;;;;;;54.03;26.35;;;8.20;99.90;;;;;;5034287;28;20040;-78
2022/11/15 05:00:12;;;;;;;62.88;28.65;;;8.20;99.90;;;;;;5004205;28;20041;-78
2022/11/15 05:05:27;;;;;;;67.82;28.92;;;8.30;99.90;;;;;;5001539;28;20421;-78
2022/11/15 05:07:53;;;;;;;58.35;27.88;;;8.30;99.90;;;;;;5023174;28;20033;-79
2022/11/15 05:10:18;;;;;;;63.03;30.08;;;8.30;99.90;;;;;;4992172;28;20037;-78
2022/11/15 05:12:46;;;;;;;63.13;30.10;;;8.30;99.90;;;;;;5016427;28;20047;-78
2022/11/15 05:15:11;;;;;;;62.85;29.30;;;8.30;99.90;;;;;;5036064;28;20037;-77
2022/11/15 05:17:37;;;;;;;71.93;30.48;;;8.40;99.90;;;;;;5033823;28;20044;-78
2022/11/15 05:20:03;;;;;;;70.10;30.60;;;8.40;99.90;;;;;;5020279;28;20040;-78
2022/11/15 05:22:28;;;;;;;62.17;30.83;;;8.40;99.90;;;;;;5017927;28;20043;-78
2022/11/15 05:24:54;;;;;;;68.28;30.80;;;8.50;99.90;;;;;;5003187;28;20147;-78
2022/11/15 05:27:20;;;;;;;71.53;33.03;;;8.50;99.90;;;;;;5030542;28;20665;-78
2022/11/15 05:29:45;;;;;;;75.28;32.88;;;8.40;99.90;;;;;;5020390;28;20516;-78
2022/11/15 05:32:12;;;;;;;63.35;29.50;;;8.50;99.90;;;;;;5031674;28;20129;-79
2022/11/15 05:34:38;;;;;;;75.25;34.10;;;8.60;99.90;;;;;;5029738;28;20490;-78
2022/11/15 05:37:04;;;;;;;76.50;34.55;;;8.60;99.90;;;;;;4999307;28;20036;-78
2022/11/15 05:39:30;;;;;;;74.28;32.92;;;8.70;99.90;;;;;;5016773;28;20508;-78
2022/11/15 05:42:07;;;;;;;70.88;30.70;;;8.80;99.90;;;;;;5012916;28;20032;-78
2022/11/15 05:44:35;;;;;;;65.53;32.17;;;8.70;99.90;;;;;;5012058;28;20099;-78
2022/11/15 05:47:03;;;;;;;76.32;34.42;;;8.70;99.90;;;;;;5016820;28;20093;-78
2022/11/15 05:49:33;;;;;;;87.78;36.45;;;8.80;99.90;;;;;;5031544;28;20030;-79
2022/11/15 05:51:59;;;;;;;74.45;34.92;;;8.80;99.90;;;;;;5016568;28;20109;-78
2022/11/15 05:54:25;;;;;;;80.45;36.58;;;8.80;99.90;;;;;;5032458;28;20045;-78
2022/11/15 05:56:52;;;;;;;76.28;35.40;;;8.90;99.90;;;;;;5006738;28;20122;-77
2022/11/15 05:59:18;;;;;;;79.78;37.75;;;8.90;99.90;;;;;;5031545;28;20059;-78
2022/11/15 06:01:44;;;;;;;97.93;38.25;;;9.00;99.90;;;;;;5001375;28;20052;-79
2022/11/15 06:04:10;;;;;;;89.38;37.30;;;9.00;99.90;;;;;;5014494;28;20416;-78
2022/11/15 06:06:35;;;;;;;85.13;38.17;;;9.00;99.90;;;;;;4998445;28;20052;-77
2022/11/15 06:09:01;;;;;;;87.90;39.53;;;9.10;99.90;;;;;;5042070;28;20052;-79
2022/11/15 06:11:27;;;;;;;95.70;40.95;;;9.10;99.90;;;;;;5032171;28;20036;-79
2022/11/15 06:13:53;;;;;;;100.43;41.08;;;9.10;99.90;;;;;;5028383;28;21614;-78
2022/11/15 06:16:18;;;;;;;85.72;38.10;;;9.20;99.90;;;;;;5013463;28;20037;-78
2022/11/15 06:18:44;;;;;;;86.25;38.90;;;9.20;99.90;;;;;;5018098;28;20044;-78
2022/11/15 06:21:09;;;;;;;95.95;39.95;;;9.20;99.90;;;;;;4999459;28;20037;-78
2022/11/15 06:23:35;;;;;;;81.18;39.97;;;9.30;99.90;;;;;;4998668;28;20128;-79
2022/11/15 06:26:02;;;;;;;99.38;42.08;;;9.20;99.90;;;;;;5011831;28;20045;-79
2022/11/15 06:28:30;;;;;;;83.70;37.10;;;9.30;99.90;;;;;;5033252;28;20051;-79
2022/11/15 06:30:56;;;;;;;89.10;38.92;;;9.30;99.90;;;;;;5030100;28;20045;-78
2022/11/15 06:33:22;;;;;;;96.68;38.75;;;9.30;99.90;;;;;;5037200;28;20033;-79
2022/11/15 06:35:48;;;;;;;89.45;40.05;;;9.40;99.90;;;;;;4994437;28;20048;-79
2022/11/15 06:38:14;;;;;;;88.93;39.60;;;9.40;99.90;;;;;;5033143;28;20044;-78
2022/11/15 06:40:39;;;;;;;88.28;40.20;;;9.50;99.90;;;;;;5031847;28;20106;-78
2022/11/15 06:43:06;;;;;;;96.75;41.60;;;9.50;99.90;;;;;;5018384;28;20040;-79
2022/11/15 06:45:32;;;;;;;86.13;39.00;;;9.50;99.90;;;;;;5012864;28;20588;-79
2022/11/15 06:47:58;;;;;;;87.40;41.20;;;9.60;99.90;;;;;;5033276;28;20505;-81
2022/11/15 06:50:24;;;;;;;94.20;40.72;;;9.60;99.90;;;;;;5032226;28;20058;-76
2022/11/15 06:52:50;;;;;;;97.47;40.63;;;9.60;99.90;;;;;;5014046;28;20553;-78
2022/11/15 06:55:16;;;;;;;87.43;40.92;;;9.60;99.90;;;;;;5016590;28;20092;-76
2022/11/15 06:57:52;;;;;;;93.80;42.90;;;9.70;99.90;;;;;;5004929;28;20098;-78
2022/11/15 07:00:19;;;;;;;97.25;41.30;;;9.70;99.90;;;;;;5032118;28;20041;-78
2022/11/15 07:02:45;;;;;;;89.72;38.55;;;9.70;99.90;;;;;;5030981;28;20133;-79
2022/11/15 07:05:12;;;;;;;87.63;40.72;;;9.80;99.90;;;;;;5009868;28;20788;-77
2022/11/15 07:07:38;;;;;;;83.25;39.95;;;9.80;99.90;;;;;;5014531;28;20047;-79
2022/11/15 07:10:04;;;;;;;79.63;38.13;;;9.80;99.90;;;;;;5031947;28;20033;-78
2022/11/15 07:12:30;;;;;;;85.25;40.45;;;9.80;99.90;;;;;;5049297;28;20048;-79
2022/11/15 07:14:56;;;;;;;95.07;42.17;;;9.90;99.90;;;;;;5045683;28;20037;-78
2022/11/15 07:17:21;;;;;;;91.35;40.90;;;10.10;99.90;;;;;;5028038;28;20044;-79
2022/11/15 07:19:47;;;;;;;97.18;41.13;;;9.90;99.90;;;;;;5026089;28;20041;-78
2022/11/15 07:22:13;;;;;;;80.22;40.25;;;10.00;99.90;;;;;;5043100;28;20044;-78
2022/11/15 07:24:38;;;;;;;90.13;40.70;;;10.00;99.90;;;;;;5024368;28;20048;-79
2022/11/15 07:27:04;;;;;;;85.57;41.60;;;10.00;99.90;;;;;;5025444;28;20040;-79
2022/11/15 07:29:30;;;;;;;92.18;40.60;;;10.00;99.90;;;;;;5040247;28;20065;-78
2022/11/15 07:31:55;;;;;;;84.03;41.13;;;10.10;99.90;;;;;;5016829;28;20041;-80
2022/11/15 07:34:22;;;;;;;90.85;40.88;;;10.10;99.90;;;;;;5022344;28;20408;-75
2022/11/15 07:36:50;;;;;;;84.43;38.80;;;10.10;99.90;;;;;;5013813;28;20071;-79
2022/11/15 07:39:21;;;;;;;74.07;39.92;;;10.10;99.90;;;;;;5020313;28;20040;-81
2022/11/15 07:41:49;;;;;;;76.90;38.28;;;10.20;99.90;;;;;;5022522;28;20041;-80
2022/11/15 07:44:14;;;;;;;82.60;40.47;;;10.20;99.90;;;;;;5022326;28;20045;-80
2022/11/15 07:46:40;;;;;;;83.75;39.45;;;10.20;99.90;;;;;;5021285;28;21024;-80
2022/11/15 07:49:06;;;;;;;70.93;36.75;;;10.30;99.90;;;;;;4984211;28;20701;-81
2022/11/15 07:51:31;;;;;;;73.25;37.25;;;10.20;99.90;;;;;;5022145;28;20068;-80
2022/11/15 07:53:57;;;;;;;75.32;39.38;;;10.30;99.90;;;;;;5006716;28;20505;-79
2022/11/15 07:56:23;;;;;;;75.85;38.92;;;10.30;99.90;;;;;;5019746;28;20037;-81
2022/11/15 07:58:50;;;;;;;68.97;36.83;;;10.50;99.90;;;;;;5004918;28;20100;-80
2022/11/15 08:01:15;;;;;;;66.70;36.40;;;10.40;99.90;;;;;;5024853;28;20639;-81
2022/11/15 08:03:41;;;;;;;67.40;36.28;;;10.40;99.90;;;;;;5024315;28;20110;-80
2022/11/15 08:06:07;;;;;;;71.65;38.13;;;10.40;99.90;;;;;;4993080;28;20037;-81
2022/11/15 08:08:32;;;;;;;69.20;37.70;;;10.40;99.90;;;;;;5034147;28;20041;-81
2022/11/15 08:10:59;;;;;;;64.35;35.63;;;11.40;99.90;;;;;;5003472;28;20045;-80
2022/11/15 08:13:24;;;;;;;58.05;34.97;;;10.50;99.90;;;;;;5019437;28;20463;-80
2022/11/15 08:15:50;;;;;;;60.72;34.92;;;10.50;99.90;;;;;;5022510;28;20048;-80
2022/11/15 08:18:17;;;;;;;58.63;34.70;;;10.50;99.90;;;;;;5022612;28;20056;-81
2022/11/15 08:20:43;;;;;;;55.97;34.78;;;10.70;99.90;;;;;;5025072;28;20068;-80
2022/11/15 08:23:11;;;;;;;62.42;35.33;;;10.60;99.90;;;;;;5037556;28;20055;-81
2022/11/15 08:25:37;;;;;;;61.83;35.15;;;10.60;99.90;;;;;;5037378;28;20049;-79
2022/11/15 08:28:05;;;;;;;59.10;33.35;;;10.60;99.90;;;;;;5036263;28;20044;-80
2022/11/15 08:30:36;;;;;;;55.25;34.13;;;10.60;99.90;;;;;;5033158;28;20640;-80
2022/11/15 08:33:02;;;;;;;55.20;34.33;;;10.60;99.90;;;;;;5020693;28;20112;-81
2022/11/15 08:35:28;;;;;;;55.53;34.17;;;10.70;99.90;;;;;;5002894;28;20097;-81
2022/11/15 08:37:54;;;;;;;58.13;33.78;;;10.70;99.90;;;;;;5014858;28;20038;-78
2022/11/15 08:40:20;;;;;;;54.80;33.40;;;10.60;99.90;;;;;;5033752;28;20119;-79
2022/11/15 08:42:46;;;;;;;59.10;33.80;;;10.70;99.90;;;;;;5029352;28;20500;-79
2022/11/15 08:45:12;;;;;;;55.20;33.28;;;10.70;99.90;;;;;;5020678;28;20034;-80
2022/11/15 08:47:38;;;;;;;54.30;33.88;;;10.70;99.90;;;;;;5027948;28;20079;-79
2022/11/15 08:50:05;;;;;;;56.50;33.15;;;11.30;99.90;;;;;;5043979;28;20044;-81
2022/11/15 08:52:31;;;;;;;56.47;32.50;;;10.80;99.90;;;;;;5066649;28;20037;-80
2022/11/15 08:54:57;;;;;;;54.67;33.25;;;10.80;99.90;;;;;;5060212;28;20033;-80
2022/11/15 08:57:23;;;;;;;54.80;32.67;;;10.80;99.90;;;;;;5040791;28;20032;-80
2022/11/15 08:59:49;;;;;;;52.05;32.72;;;10.80;99.90;;;;;;5037262;28;20100;-80
2022/11/15 09:02:15;;;;;;;50.88;32.42;;;10.90;99.90;;;;;;5033278;28;20040;-80
2022/11/15 09:04:42;;;;;;;56.42;33.08;;;10.90;99.90;;;;;;5022867;28;20167;-78
2022/11/15 09:07:11;;;;;;;55.75;31.65;;;10.90;99.90;;;;;;5019471;28;20045;-79
2022/11/15 09:09:38;;;;;;;52.17;31.02;;;10.90;99.90;;;;;;5039753;28;20033;-81
2022/11/15 09:12:05;;;;;;;50.72;31.23;;;11.00;99.90;;;;;;5017252;28;20045;-81
2022/11/15 09:14:31;;;;;;;50.90;30.35;;;11.00;99.90;;;;;;5039731;28;20037;-80
2022/11/15 09:16:58;;;;;;;53.47;31.13;;;11.00;99.90;;;;;;5052428;28;20041;-81
2022/11/15 09:19:23;;;;;;;50.05;30.55;;;11.00;99.90;;;;;;5036269;28;20079;-81
2022/11/15 09:21:49;;;;;;;45.30;28.17;;;11.00;99.90;;;;;;5045545;28;20045;-81
2022/11/15 09:24:15;;;;;;;43.90;28.75;;;11.00;99.90;;;;;;5003239;28;20417;-81
2022/11/15 09:26:41;;;;;;;41.75;28.48;;;11.00;99.90;;;;;;5011459;28;20049;-79
2022/11/15 09:29:07;;;;;;;42.50;28.45;;;11.00;99.90;;;;;;5032332;28;20543;-78
2022/11/15 09:31:32;;;;;;;42.67;28.17;;;11.00;99.90;;;;;;5009285;28;20037;-80
2022/11/15 09:33:58;;;;;;;44.55;29.00;;;11.00;99.90;;;;;;5004018;28;20033;-81
2022/11/15 09:36:24;;;;;;;38.40;26.77;;;11.10;99.90;;;;;;4994839;28;20048;-80
2022/11/15 09:38:50;;;;;;;44.17;27.40;;;11.20;99.90;;;;;;4997211;28;20128;-78
2022/11/15 09:41:48;;;;;;;40.20;25.42;;;11.20;99.90;;;;;;5011957;28;20037;-78
2022/11/15 09:44:41;;;;;;;41.85;26.90;;;11.20;99.90;;;;;;4961129;28;20051;-78
2022/11/15 09:47:26;;;;;;;38.67;25.33;;;11.20;99.90;;;;;;5015457;28;20102;-81
2022/11/15 09:49:57;;;;;;;45.65;27.73;;;11.30;99.90;;;;;;5046656;28;20507;-81
2022/11/15 09:52:23;;;;;;;38.38;25.60;;;11.30;99.90;;;;;;5046797;28;20048;-80
2022/11/15 09:54:51;;;;;;;43.45;27.70;;;11.30;99.90;;;;;;5021656;28;20064;-81
2022/11/15 09:57:44;;;;;;;34.80;25.23;;;11.40;99.90;;;;;;5032813;28;20045;-80
2022/11/15 10:00:17;;;;;;;40.92;27.25;;;11.40;99.90;;;;;;5034597;28;20113;-82
2022/11/15 10:02:46;;;;;;;40.65;27.10;;;11.40;99.90;;;;;;5015798;28;20032;-81
2022/11/15 10:05:18;;;;;;;43.67;28.55;;;11.40;99.90;;;;;;5019517;28;20079;-81
2022/11/15 10:08:12;;;;;;;42.53;25.90;;;11.50;99.90;;;;;;5017249;28;20045;-81
2022/11/15 10:10:43;;;;;;;38.85;25.38;;;11.50;99.90;;;;;;5049758;28;20033;-79
2022/11/15 10:13:33;;;;;;;36.50;25.90;;;11.50;99.90;;;;;;5015831;28;20032;-82
2022/11/15 10:16:35;;;;;;;42.13;26.42;;;11.60;99.90;;;;;;5032665;28;20052;-80
2022/11/15 10:19:24;;;;;;;35.97;24.60;;;11.70;99.90;;;;;;5012627;28;20110;-80
2022/11/15 10:22:15;;;;;;;36.15;24.90;;;11.70;99.90;;;;;;5027725;28;20532;-80
2022/11/15 10:24:44;;;;;;;35.67;24.80;;;11.70;99.90;;;;;;5046258;28;20037;-80
2022/11/15 10:27:17;;;;;;;33.45;23.92;;;11.70;99.90;;;;;;5025716;28;20048;-81
2022/11/15 10:29:48;;;;;;;36.00;24.40;;;11.70;99.90;;;;;;5021404;28;20037;-82
2022/11/15 10:32:19;;;;;;;36.97;24.63;;;11.70;99.90;;;;;;5015172;28;20069;-81
2022/11/15 10:34:46;;;;;;;37.80;23.83;;;11.80;99.90;;;;;;5029544;28;20072;-83
2022/11/15 10:37:12;;;;;;;31.35;23.15;;;12.10;99.90;;;;;;4999840;28;20049;-82
2022/11/15 10:39:38;;;;;;;33.65;22.52;;;11.80;99.90;;;;;;5031568;28;20044;-81
2022/11/15 10:42:28;;;;;;;36.88;22.60;;;11.90;99.90;;;;;;5008304;28;20037;-80
2022/11/15 10:44:54;;;;;;;35.65;21.70;;;11.90;99.90;;;;;;5011611;28;20044;-81
2022/11/15 10:47:30;;;;;;;31.80;22.23;;;11.90;99.90;;;;;;5016605;28;20041;-80
2022/11/15 10:49:59;;;;;;;32.70;21.25;;;11.90;99.90;;;;;;5030693;28;20390;-78
2022/11/15 10:52:26;;;;;;;31.13;20.52;;;11.90;99.90;;;;;;5014111;28;20045;-80
2022/11/15 10:54:56;;;;;;;35.58;21.02;;;11.90;99.90;;;;;;5013433;28;20064;-78
2022/11/15 10:57:26;;;;;;;28.77;20.77;;;12.00;99.90;;;;;;5028600;28;20083;-78
2022/11/15 10:59:56;;;;;;;26.08;19.10;;;12.00;99.90;;;;;;5032725;28;20072;-77
2022/11/15 11:02:37;;;;;;;33.60;20.30;;;12.00;99.90;;;;;;5042197;28;20098;-79
2022/11/15 11:05:27;;;;;;;34.78;19.13;;;12.00;99.90;;;;;;5059766;28;20033;-80
2022/11/15 11:08:23;;;;;;;30.73;18.73;;;12.00;99.90;;;;;;5034495;28;20520;-78
2022/11/15 11:10:56;;;;;;;26.15;19.27;;;12.00;99.90;;;;;;5050786;28;20033;-81
2022/11/15 11:13:32;;;;;;;26.00;18.20;;;11.90;99.90;;;;;;5033371;28;20685;-79
2022/11/15 11:16:27;;;;;;;28.45;17.67;;;12.00;99.90;;;;;;5052916;28;20051;-78
2022/11/15 11:19:11;;;;;;;27.38;18.05;;;12.00;99.90;;;;;;5016819;28;20090;-78
2022/11/15 11:22:19;;;;;;;27.55;17.70;;;12.00;99.90;;;;;;5046711;28;20045;-78
2022/11/15 11:25:03;;;;;;;23.17;17.20;;;12.00;99.90;;;;;;5029041;28;20124;-80
2022/11/15 11:27:34;;;;;;;25.90;16.40;;;12.00;99.90;;;;;;5014500;28;20073;-80
2022/11/15 11:30:16;;;;;;;24.40;17.48;;;12.00;99.90;;;;;;5027495;28;20072;-79
2022/11/15 11:33:02;;;;;;;21.63;16.52;;;12.10;99.90;;;;;;5031159;28;20124;-78
2022/11/15 11:35:36;;;;;;;23.45;16.85;;;12.10;99.90;;;;;;5026615;28;20265;-81
2022/11/15 11:38:34;;;;;;;21.20;15.63;;;12.10;99.90;;;;;;5011196;28;20037;-78
2022/11/15 11:41:13;;;;;;;19.13;14.73;;;12.10;99.90;;;;;;5040715;28;20670;-80
2022/11/15 11:43:44;;;;;;;20.60;14.55;;;12.10;99.90;;;;;;5011993;28;20041;-82
2022/11/15 11:46:16;;;;;;;20.42;14.27;;;12.10;99.90;;;;;;5010926;28;20124;-83
2022/11/15 11:49:10;;;;;;;21.13;13.80;;;12.10;99.90;;;;;;5008862;28;20128;-81
2022/11/15 11:51:49;;;;;;;18.65;12.95;;;12.20;99.90;;;;;;4994875;28;20497;-80
2022/11/15 11:54:26;;;;;;;16.98;12.70;;;12.20;99.90;;;;;;5024872;28;20489;-80
2022/11/15 11:56:54;;;;;;;17.13;11.45;;;12.10;99.90;;;;;;5030742;28;20140;-79
2022/11/15 11:59:33;;;;;;;17.90;11.63;;;12.20;99.90;;;;;;5022498;28;20058;-82
2022/11/15 12:02:11;;;;;;;18.42;11.00;;;12.20;99.90;;;;;;5024876;28;20040;-79
2022/11/15 12:04:42;;;;;;;13.82;10.25;;;12.30;99.90;;;;;;5034374;28;20041;-80
2022/11/15 12:07:20;;;;;;;15.98;10.35;;;12.30;99.90;;;;;;5015179;28;20052;-81
2022/11/15 12:10:14;;;;;;;15.68;10.68;;;12.30;99.90;;;;;;5032059;28;20131;-79
2022/11/15 12:12:49;;;;;;;15.35;10.05;;;12.40;99.90;;;;;;5026387;28;20051;-77
2022/11/15 12:15:32;;;;;;;12.15;8.48;;;12.50;99.90;;;;;;5014972;28;20046;-77
2022/11/15 12:18:01;;;;;;;12.25;8.93;;;12.60;99.90;;;;;;5030297;28;20052;-81
2022/11/15 12:20:34;;;;;;;14.13;8.10;;;12.60;99.90;;;;;;5032444;28;20397;-79
2022/11/15 12:23:13;;;;;;;14.93;8.95;;;12.70;99.90;;;;;;5030459;28;20040;-79
2022/11/15 12:25:54;;;;;;;14.63;8.20;;;12.50;99.90;;;;;;5025724;28;20063;-80
2022/11/15 12:28:47;;;;;;;14.27;8.63;;;12.70;99.90;;;;;;5041327;28;20116;-77
2022/11/15 12:31:34;;;;;;;15.77;8.38;;;12.70;99.90;;;;;;5011276;28;20033;-78
2022/11/15 12:34:13;;;;;;;12.32;7.93;;;12.60;99.90;;;;;;5032832;28;20128;-80
2022/11/15 12:36:42;;;;;;;10.82;8.07;;;12.60;99.90;;;;;;5033066;28;20088;-79
2022/11/15 12:39:09;;;;;;;12.75;8.15;;;12.70;99.90;;;;;;5012899;28;20041;-78
2022/11/15 12:41:40;;;;;;;12.27;7.32;;;12.70;99.90;;;;;;5017272;28;20094;-77
2022/11/15 12:44:12;;;;;;;10.95;7.35;;;12.70;99.90;;;;;;5014376;28;22366;-80
2022/11/15 12:46:41;;;;;;;11.30;7.40;;;12.80;99.90;;;;;;5032406;28;20044;-80
2022/11/15 12:49:25;;;;;;;10.90;7.00;;;12.90;99.90;;;;;;5015508;28;20040;-80
2022/11/15 12:51:52;;;;;;;9.80;6.93;;;12.80;99.90;;;;;;5017042;28;20382;-80
2022/11/15 12:54:23;;;;;;;10.57;6.32;;;12.80;99.90;;;;;;5031119;28;20076;-80
2022/11/15 12:57:06;;;;;;;11.23;6.72;;;12.80;99.90;;;;;;5014059;28;20652;-80
2022/11/15 13:00:04;;;;;;;8.15;5.95;;;12.80;99.90;;;;;;5014244;28;20110;-82
2022/11/15 13:02:51;;;;;;;10.27;5.97;;;12.80;99.90;;;;;;5025411;28;20041;-82